createdAt,value
2022-12-19T00:04:12.971Z,-5.19
2022-12-19T00:08:25.241Z,-5.22
2022-12-19T00:12:37.501Z,-5.14
2022-12-19T00:16:49.779Z,-5.14
2022-12-19T00:21:05.178Z,-4.94
2022-12-19T00:25:17.594Z,-4.99
2022-12-19T00:29:31.465Z,-5.13
2022-12-19T00:33:44.190Z,-4.78
2022-12-19T00:37:57.788Z,-5.07
2022-12-19T00:42:10.071Z,-4.91
2022-12-19T00:46:23.387Z,-5.09
2022-12-19T00:50:35.714Z,-5.38
2022-12-19T00:54:48.435Z,-5.49
2022-12-19T00:59:01.482Z,-5.34
2022-12-19T01:03:13.938Z,-5.30
2022-12-19T01:07:26.235Z,-5.33
2022-12-19T01:11:57.747Z,-5.48
2022-12-19T01:16:13.623Z,-5.34
2022-12-19T01:20:29.487Z,-5.29
2022-12-19T01:24:42.422Z,-5.17
2022-12-19T01:28:54.727Z,-5.21
2022-12-19T01:33:07.151Z,-5.26
2022-12-19T01:37:20.473Z,-5.32
2022-12-19T01:41:32.823Z,-5.35
2022-12-19T01:45:48.663Z,-5.33
2022-12-19T01:50:03.100Z,-5.36
2022-12-19T01:54:21.871Z,-5.33
2022-12-19T01:58:35.144Z,-5.33
2022-12-19T02:02:54.985Z,-5.16
2022-12-19T02:07:16.288Z,-5.18
2022-12-19T02:11:38.192Z,-5.28
2022-12-19T02:15:58.293Z,-5.26
2022-12-19T02:20:46.183Z,-5.29
2022-12-19T02:25:26.436Z,-5.25
2022-12-19T02:30:02.948Z,-5.20
2022-12-19T02:34:21.609Z,-5.22
2022-12-19T02:38:48.998Z,-5.29
2022-12-19T02:43:05.678Z,-5.32
2022-12-19T02:47:19.944Z,-5.49
2022-12-19T02:51:32.230Z,-5.49
2022-12-19T02:56:05.584Z,-5.44
2022-12-19T03:00:24.915Z,-5.31
2022-12-19T03:04:53.987Z,-5.14
2022-12-19T03:09:06.189Z,-5.02
2022-12-19T03:13:22.090Z,-5.02
2022-12-19T03:17:38.813Z,-4.69
2022-12-19T03:21:51.553Z,-4.83
2022-12-19T03:26:08.405Z,-4.74
2022-12-19T03:30:21.037Z,-4.72
2022-12-19T03:34:45.789Z,-4.60
2022-12-19T03:39:00.744Z,-4.67
2022-12-19T03:43:16.744Z,-4.54
2022-12-19T03:47:36.087Z,-4.25
2022-12-19T03:52:02.024Z,-4.50
2022-12-19T03:56:52.781Z,-4.51
2022-12-19T04:01:07.515Z,-4.48
2022-12-19T04:05:24.057Z,-4.59
2022-12-19T04:09:38.466Z,-4.55
2022-12-19T04:14:02.105Z,-4.53
2022-12-19T04:18:21.917Z,-4.77
2022-12-19T04:22:54.325Z,-4.81
2022-12-19T04:27:10.367Z,-4.58
2022-12-19T04:31:24.360Z,-4.73
2022-12-19T04:35:37.443Z,-4.77
2022-12-19T04:39:49.796Z,-4.71
2022-12-19T04:44:02.225Z,-4.75
2022-12-19T04:48:14.653Z,-4.53
2022-12-19T04:52:27.016Z,-4.40
2022-12-19T04:56:39.341Z,-4.42
2022-12-19T05:00:51.664Z,-4.48
2022-12-19T05:05:04.084Z,-4.29
2022-12-19T05:09:16.752Z,-4.47
2022-12-19T05:13:29.973Z,-4.31
2022-12-19T05:17:42.272Z,-4.30
2022-12-19T05:21:54.682Z,-4.27
2022-12-19T05:26:07.999Z,-4.31
2022-12-19T05:30:30.288Z,-4.32
2022-12-19T05:34:42.593Z,-4.21
2022-12-19T05:38:54.917Z,-4.12
2022-12-19T05:43:07.391Z,-3.97
2022-12-19T05:47:21.225Z,-3.94
2022-12-19T05:51:33.525Z,-3.83
2022-12-19T05:55:46.118Z,-3.67
2022-12-19T05:59:58.455Z,-3.73
2022-12-19T06:04:10.738Z,-3.72
2022-12-19T06:08:23.389Z,-3.72
2022-12-19T06:12:35.699Z,-3.91
2022-12-19T06:16:48.070Z,-3.80
2022-12-19T06:21:02.582Z,-3.61
2022-12-19T06:25:15.022Z,-3.65
2022-12-19T06:29:27.321Z,-3.47
2022-12-19T06:33:39.623Z,-3.50
2022-12-19T06:37:54.352Z,-3.39
2022-12-19T06:42:24.964Z,-3.49
2022-12-19T06:46:38.187Z,-3.39
2022-12-19T06:50:50.470Z,-3.36
2022-12-19T06:55:02.759Z,-3.29
2022-12-19T06:59:17.012Z,-3.34
2022-12-19T07:03:38.369Z,-3.39
2022-12-19T07:07:50.991Z,-3.24
2022-12-19T07:12:03.659Z,-3.18
2022-12-19T07:16:16.115Z,-3.08
2022-12-19T07:20:31.252Z,-3.05
2022-12-19T07:24:43.588Z,-2.83
2022-12-19T07:28:56.020Z,-2.77
2022-12-19T07:33:11.102Z,-2.60
2022-12-19T07:37:24.153Z,-2.57
2022-12-19T07:41:39.840Z,-2.48
2022-12-19T07:45:56.000Z,-2.24
2022-12-19T07:50:18.374Z,-2.21
2022-12-19T07:54:30.695Z,-1.91
2022-12-19T07:58:53.146Z,-1.87
2022-12-19T08:03:05.516Z,-1.81
2022-12-19T08:07:20.264Z,-1.74
2022-12-19T08:11:32.552Z,-1.62
2022-12-19T08:15:44.908Z,-1.25
2022-12-19T08:19:57.238Z,-0.98
2022-12-19T08:24:09.567Z,-0.69
2022-12-19T08:28:21.842Z,-0.46
2022-12-19T08:32:34.139Z,-0.30
2022-12-19T08:36:46.436Z,0.05
2022-12-19T08:40:58.732Z,0.38
2022-12-19T08:45:11.519Z,0.59
2022-12-19T08:49:23.812Z,0.59
2022-12-19T08:53:38.547Z,1.00
2022-12-19T08:57:50.824Z,1.13
2022-12-19T09:02:03.353Z,1.48
2022-12-19T09:06:19.485Z,1.49
2022-12-19T09:10:32.178Z,1.82
2022-12-19T09:14:47.471Z,1.79
2022-12-19T09:18:59.908Z,1.37
2022-12-19T09:23:12.212Z,1.26
2022-12-19T09:27:25.071Z,1.57
2022-12-19T09:31:37.433Z,1.66
2022-12-19T09:35:54.458Z,1.95
2022-12-19T09:40:12.127Z,2.18
2022-12-19T09:44:45.732Z,1.40
2022-12-19T09:48:58.712Z,2.05
2022-12-19T09:53:22.123Z,2.28
2022-12-19T09:57:47.826Z,2.09
2022-12-19T10:02:24.035Z,2.57
2022-12-19T10:07:18.676Z,2.47
2022-12-19T10:12:46.511Z,2.36
2022-12-19T10:16:01.674Z,2.80
2022-12-19T10:20:39.870Z,2.85
2022-12-19T10:25:08.935Z,2.90
2022-12-19T10:30:02.244Z,3.41
2022-12-19T10:34:33.575Z,3.86
2022-12-19T10:39:07.409Z,3.95
2022-12-19T10:43:32.857Z,3.73
2022-12-19T10:47:50.609Z,4.11
2022-12-19T10:52:06.624Z,3.74
2022-12-19T10:56:28.257Z,4.07
2022-12-19T11:00:54.940Z,3.99
2022-12-19T11:05:27.156Z,4.17
2022-12-19T11:09:46.786Z,4.10
2022-12-19T11:18:52.742Z,3.68
2022-12-19T11:29:15.365Z,3.49
2022-12-19T11:30:38.642Z,4.34
2022-12-19T11:30:48.001Z,3.68
2022-12-19T11:33:19.247Z,4.61
2022-12-19T11:37:42.238Z,4.43
2022-12-19T11:42:09.245Z,4.79
2022-12-19T11:46:27.533Z,4.41
2022-12-19T11:51:02.462Z,4.56
2022-12-19T11:55:24.577Z,4.08
2022-12-19T11:59:40.893Z,3.94
2022-12-19T12:04:19.290Z,3.63
2022-12-19T12:11:36.603Z,3.56
2022-12-19T12:20:28.669Z,3.35
2022-12-19T12:31:00.904Z,3.63
2022-12-19T12:31:42.240Z,4.01
2022-12-19T12:31:49.889Z,3.89
2022-12-19T12:35:32.682Z,4.32
2022-12-19T12:38:39.794Z,4.45
2022-12-19T12:43:40.093Z,4.25
2022-12-19T12:52:43.753Z,4.29
2022-12-19T12:56:56.061Z,4.38
2022-12-19T13:01:12.094Z,4.13
2022-12-19T13:05:35.294Z,4.11
2022-12-19T13:09:55.356Z,3.69
2022-12-19T13:14:36.376Z,4.01
2022-12-19T13:19:19.580Z,3.60
2022-12-19T13:23:44.184Z,3.31
2022-12-19T13:28:03.728Z,3.72
2022-12-19T13:32:17.337Z,3.93
2022-12-19T13:40:02.200Z,3.42
2022-12-19T13:42:02.226Z,3.39
2022-12-19T13:46:36.583Z,3.53
2022-12-19T13:50:49.405Z,3.44
2022-12-19T13:55:02.006Z,2.62
2022-12-19T13:59:14.513Z,2.66
2022-12-19T14:03:43.312Z,2.47
2022-12-19T14:07:55.740Z,2.17
2022-12-19T14:14:00.593Z,2.31
2022-12-19T14:17:18.113Z,2.07
2022-12-19T14:22:08.638Z,1.85
2022-12-19T14:28:17.937Z,1.53
2022-12-19T14:30:41.509Z,1.41
2022-12-19T14:36:07.383Z,1.11
2022-12-19T14:39:33.512Z,1.21
2022-12-19T14:44:00.162Z,1.21
2022-12-19T14:54:18.060Z,1.21
2022-12-19T14:54:37.573Z,1.06
2022-12-19T14:57:50.853Z,1.02
2022-12-19T15:02:32.550Z,0.99
2022-12-19T15:07:07.122Z,0.71
2022-12-19T15:14:20.715Z,0.67
2022-12-19T15:16:39.780Z,0.51
2022-12-19T15:20:53.880Z,0.16
2022-12-19T15:25:13.493Z,0.12
2022-12-19T15:29:35.281Z,-0.03
2022-12-19T15:34:23.285Z,-0.05
2022-12-19T15:38:20.088Z,-0.26
2022-12-19T15:42:32.778Z,-0.40
2022-12-19T15:46:49.020Z,-0.37
2022-12-19T15:51:01.857Z,-0.56
2022-12-19T15:55:18.861Z,-0.34
2022-12-19T15:59:42.051Z,-0.39
2022-12-19T16:03:57.444Z,-0.59
2022-12-19T16:08:23.910Z,-0.62
2022-12-19T16:12:42.355Z,-0.67
2022-12-19T16:16:56.303Z,-0.75
2022-12-19T16:21:23.663Z,-0.67
2022-12-19T16:25:42.746Z,-0.76
2022-12-19T16:29:56.317Z,-0.61
2022-12-19T16:34:17.305Z,-0.64
2022-12-19T16:38:39.642Z,-0.69
2022-12-19T16:42:59.811Z,-0.81
2022-12-19T16:47:15.229Z,-0.95
2022-12-19T16:51:28.781Z,-0.76
2022-12-19T16:55:41.455Z,-0.84
2022-12-19T16:59:53.787Z,-1.10
2022-12-19T17:04:06.204Z,-1.01
2022-12-19T17:08:19.493Z,-1.01
2022-12-19T17:12:31.814Z,-1.17
2022-12-19T17:16:45.373Z,-1.22
2022-12-19T17:20:58.047Z,-1.34
2022-12-19T17:25:20.935Z,-1.36
2022-12-19T17:29:33.236Z,-1.30
2022-12-19T17:33:46.480Z,-1.28
2022-12-19T17:37:59.221Z,-1.27
2022-12-19T17:42:19.254Z,-1.07
2022-12-19T17:46:32.119Z,-1.15
2022-12-19T17:50:44.513Z,-1.18
2022-12-19T17:54:56.771Z,-1.28
2022-12-19T17:59:09.062Z,-1.42
2022-12-19T18:03:25.842Z,-1.39
2022-12-19T18:07:38.244Z,-1.41
2022-12-19T18:11:51.600Z,-1.37
2022-12-19T18:16:04.995Z,-1.32
2022-12-19T18:20:32.866Z,-1.29
2022-12-19T18:24:45.241Z,-1.34
2022-12-19T18:28:57.516Z,-1.29
2022-12-19T18:33:17.953Z,-1.22
2022-12-19T18:37:30.272Z,-1.35
2022-12-19T18:41:42.551Z,-1.39
2022-12-19T18:45:55.120Z,-1.27
2022-12-19T18:50:29.241Z,-1.37
2022-12-19T18:54:41.606Z,-1.51
2022-12-19T18:58:53.925Z,-1.54
2022-12-19T19:03:19.751Z,-1.54
2022-12-19T19:07:32.106Z,-1.61
2022-12-19T19:11:44.653Z,-1.58
2022-12-19T19:16:02.622Z,-1.62
2022-12-19T19:20:15.002Z,-1.66
2022-12-19T19:24:27.376Z,-1.58
2022-12-19T19:28:40.184Z,-1.69
2022-12-19T19:33:13.766Z,-1.66
2022-12-19T19:37:30.052Z,-1.68
2022-12-19T19:41:42.440Z,-1.58
2022-12-19T19:45:56.929Z,-1.47
2022-12-19T19:50:19.773Z,-1.50
2022-12-19T19:54:32.948Z,-1.60
2022-12-19T19:58:45.394Z,-1.72
2022-12-19T20:02:57.831Z,-1.86
2022-12-19T20:07:12.075Z,-2.02
2022-12-19T20:11:27.842Z,-2.01
2022-12-19T20:15:46.003Z,-1.99
2022-12-19T20:20:01.735Z,-2.19
2022-12-19T20:24:14.208Z,-2.22
2022-12-19T20:28:26.490Z,-2.10
2022-12-19T20:32:38.782Z,-2.07
2022-12-19T20:36:51.115Z,-2.03
2022-12-19T20:41:04.252Z,-2.04
2022-12-19T20:45:16.923Z,-1.93
2022-12-19T20:49:29.225Z,-1.79
2022-12-19T20:53:42.446Z,-1.79
2022-12-19T20:57:54.734Z,-1.97
2022-12-19T21:02:07.625Z,-2.09
2022-12-19T21:06:21.941Z,-2.21
2022-12-19T21:10:36.365Z,-2.21
2022-12-19T21:14:48.681Z,-2.26
2022-12-19T21:19:02.065Z,-2.17
2022-12-19T21:23:14.911Z,-2.11
2022-12-19T21:27:27.225Z,-2.19
2022-12-19T21:31:39.742Z,-2.11
2022-12-19T21:35:52.146Z,-2.07
2022-12-19T21:40:05.240Z,-2.01
2022-12-19T21:44:17.526Z,-1.96
2022-12-19T21:48:29.835Z,-1.98
2022-12-19T21:52:42.268Z,-1.94
2022-12-19T21:56:54.659Z,-2.00
2022-12-19T22:01:12.418Z,-1.89
2022-12-19T22:05:24.789Z,-1.74
2022-12-19T22:09:37.143Z,-1.92
2022-12-19T22:13:50.449Z,-1.85
2022-12-19T22:18:03.722Z,-1.87
2022-12-19T22:22:16.025Z,-1.84
2022-12-19T22:26:30.881Z,-1.66
2022-12-19T22:30:43.269Z,-1.89
2022-12-19T22:34:56.444Z,-1.87
2022-12-19T22:39:14.618Z,-1.70
2022-12-19T22:43:26.898Z,-1.68
2022-12-19T22:47:43.011Z,-1.56
2022-12-19T22:51:55.992Z,-1.59
2022-12-19T22:56:12.549Z,-1.52
2022-12-19T23:00:24.871Z,-1.60
2022-12-19T23:04:37.211Z,-1.62
2022-12-19T23:08:50.010Z,-1.49
2022-12-19T23:13:02.319Z,-1.53
2022-12-19T23:17:14.696Z,-1.53
2022-12-19T23:21:27.352Z,-1.47
2022-12-19T23:25:42.119Z,-1.45
2022-12-19T23:29:54.437Z,-1.51
2022-12-19T23:34:06.788Z,-1.29
2022-12-19T23:38:19.228Z,-1.54
2022-12-19T23:42:31.581Z,-1.62
2022-12-19T23:46:45.851Z,-1.51
2022-12-19T23:51:03.585Z,-1.54
2022-12-19T23:55:15.943Z,-1.57
2022-12-19T23:59:28.420Z,-1.65
